createdAt,value
2022-12-31T00:00:15.077Z,44.80
2022-12-31T00:02:42.086Z,41.60
2022-12-31T00:05:09.366Z,39.80
2022-12-31T00:10:09.607Z,47.00
2022-12-31T00:12:38.089Z,45.20
2022-12-31T00:15:05.516Z,44.20
2022-12-31T00:17:32.695Z,41.40
2022-12-31T00:19:59.851Z,43.80
2022-12-31T00:22:26.821Z,39.40
2022-12-31T00:24:56.592Z,39.80
2022-12-31T00:27:26.493Z,44.80
2022-12-31T00:30:00.933Z,42.20
2022-12-31T00:32:32.413Z,39.60
2022-12-31T00:35:00.334Z,45.60
2022-12-31T00:37:27.868Z,40.60
2022-12-31T00:39:54.888Z,40.60
2022-12-31T00:42:21.996Z,41.20
2022-12-31T00:44:49.130Z,45.00
2022-12-31T00:47:19.326Z,40.20
2022-12-31T00:49:46.260Z,46.20
2022-12-31T00:52:16.166Z,43.60
2022-12-31T00:54:45.329Z,40.80
2022-12-31T00:57:12.774Z,43.40
2022-12-31T00:59:39.851Z,37.50
2022-12-31T01:02:11.555Z,40.80
2022-12-31T01:04:38.899Z,45.20
2022-12-31T01:07:05.892Z,41.75
2022-12-31T01:09:33.086Z,43.80
2022-12-31T01:12:00.005Z,46.00
2022-12-31T01:14:27.420Z,46.00
2022-12-31T01:16:54.471Z,41.20
2022-12-31T01:19:24.666Z,41.00
2022-12-31T01:21:52.007Z,41.50
2022-12-31T01:24:19.912Z,40.00
2022-12-31T01:26:47.165Z,41.00
2022-12-31T01:29:14.620Z,46.00
2022-12-31T01:31:41.945Z,42.25
2022-12-31T01:34:09.478Z,44.40
2022-12-31T01:36:38.202Z,44.20
2022-12-31T01:39:07.023Z,46.00
2022-12-31T01:41:43.171Z,43.00
2022-12-31T01:44:13.248Z,43.60
2022-12-31T01:46:47.702Z,43.80
2022-12-31T01:49:14.605Z,41.00
2022-12-31T01:51:44.542Z,43.25
2022-12-31T01:54:15.413Z,43.00
2022-12-31T01:56:45.644Z,46.40
2022-12-31T01:59:16.769Z,41.50
2022-12-31T02:01:44.865Z,41.00
2022-12-31T02:04:15.086Z,42.50
2022-12-31T02:06:48.413Z,42.00
2022-12-31T02:09:16.269Z,41.25
2022-12-31T02:11:43.308Z,44.75
2022-12-31T02:14:16.257Z,42.00
2022-12-31T02:17:08.657Z,48.80
2022-12-31T02:20:03.954Z,40.50
2022-12-31T02:22:58.492Z,40.40
2022-12-31T02:26:03.332Z,44.60
2022-12-31T02:29:11.586Z,43.50
2022-12-31T02:32:04.495Z,44.00
2022-12-31T02:34:35.814Z,42.40
2022-12-31T02:37:10.366Z,42.40
2022-12-31T02:39:42.572Z,41.40
2022-12-31T02:42:11.725Z,43.00
2022-12-31T02:44:42.039Z,42.40
2022-12-31T02:47:17.740Z,46.00
2022-12-31T02:50:05.007Z,47.00
2022-12-31T02:52:52.154Z,43.00
2022-12-31T02:55:38.158Z,41.60
2022-12-31T02:59:08.087Z,43.50
2022-12-31T03:02:02.305Z,42.60
2022-12-31T03:04:33.694Z,40.80
2022-12-31T03:07:04.321Z,49.00
2022-12-31T03:09:31.497Z,75.00
2022-12-31T03:12:17.903Z,41.80
2022-12-31T03:14:45.057Z,44.00
2022-12-31T03:17:12.740Z,51.80
2022-12-31T03:19:58.094Z,46.40
2022-12-31T03:22:28.217Z,40.40
2022-12-31T03:25:24.652Z,45.50
2022-12-31T03:27:55.332Z,47.60
2022-12-31T03:30:24.371Z,47.80
2022-12-31T03:32:52.181Z,43.00
2022-12-31T03:35:20.927Z,45.00
2022-12-31T03:37:49.453Z,46.40
2022-12-31T03:40:18.213Z,47.20
2022-12-31T03:42:45.207Z,48.60
2022-12-31T03:45:12.647Z,44.40
2022-12-31T03:47:40.365Z,43.00
2022-12-31T03:50:09.405Z,48.40
2022-12-31T03:52:37.078Z,45.80
2022-12-31T03:55:05.308Z,43.25
2022-12-31T03:57:32.803Z,42.40
2022-12-31T04:00:02.652Z,40.80
2022-12-31T04:02:29.767Z,42.20
2022-12-31T04:04:56.931Z,44.40
2022-12-31T04:07:24.107Z,47.00
2022-12-31T04:09:51.046Z,47.60
2022-12-31T04:12:18.128Z,43.40
2022-12-31T04:14:45.095Z,42.00
2022-12-31T04:17:12.362Z,46.40
2022-12-31T04:19:40.294Z,43.50
2022-12-31T04:22:07.575Z,47.80
2022-12-31T04:24:34.761Z,45.00
2022-12-31T04:27:07.278Z,46.00
2022-12-31T04:29:35.387Z,49.00
2022-12-31T04:32:05.748Z,46.00
2022-12-31T04:34:33.608Z,45.00
2022-12-31T04:37:00.963Z,49.50
2022-12-31T04:39:27.968Z,44.50
2022-12-31T04:41:55.374Z,45.80
2022-12-31T04:44:22.399Z,43.75
2022-12-31T04:46:49.724Z,46.00
2022-12-31T04:49:16.734Z,48.40
2022-12-31T04:51:43.602Z,44.00
2022-12-31T04:54:10.888Z,48.50
2022-12-31T04:56:38.006Z,58.80
2022-12-31T04:59:06.012Z,42.50
2022-12-31T05:01:33.743Z,42.50
2022-12-31T05:04:00.807Z,46.00
2022-12-31T05:06:27.938Z,46.50
2022-12-31T05:08:54.991Z,45.25
2022-12-31T05:11:22.013Z,43.25
2022-12-31T05:13:49.008Z,45.50
2022-12-31T05:16:15.982Z,44.00
2022-12-31T05:18:43.010Z,42.40
2022-12-31T05:21:15.782Z,43.75
2022-12-31T05:23:42.772Z,45.00
2022-12-31T05:26:09.768Z,48.20
2022-12-31T05:28:39.088Z,47.00
2022-12-31T05:31:05.998Z,54.40
2022-12-31T05:33:35.248Z,41.50
2022-12-31T05:36:02.239Z,40.00
2022-12-31T05:38:29.214Z,47.80
2022-12-31T05:41:04.170Z,44.50
2022-12-31T05:43:31.972Z,43.40
2022-12-31T05:46:03.312Z,45.00
2022-12-31T05:48:31.012Z,45.80
2022-12-31T05:50:58.053Z,48.00
2022-12-31T05:53:25.220Z,48.80
2022-12-31T05:55:52.141Z,47.40
2022-12-31T05:58:19.338Z,47.00
2022-12-31T06:00:46.418Z,43.80
2022-12-31T06:03:13.731Z,45.80
2022-12-31T06:05:44.774Z,49.00
2022-12-31T06:08:12.407Z,46.00
2022-12-31T06:10:40.686Z,43.25
2022-12-31T06:13:08.240Z,50.80
2022-12-31T06:15:39.942Z,44.25
2022-12-31T06:18:07.651Z,44.80
2022-12-31T06:20:37.428Z,46.00
2022-12-31T06:23:04.927Z,50.60
2022-12-31T06:25:34.369Z,44.20
2022-12-31T06:28:01.353Z,49.20
2022-12-31T06:30:28.349Z,47.60
2022-12-31T06:32:55.857Z,48.60
2022-12-31T06:35:23.388Z,49.40
2022-12-31T06:37:52.535Z,45.75
2022-12-31T06:40:19.450Z,48.40
2022-12-31T06:42:51.301Z,43.00
2022-12-31T06:45:21.532Z,45.00
2022-12-31T06:47:48.568Z,52.00
2022-12-31T06:50:17.961Z,49.75
2022-12-31T06:52:44.862Z,43.50
2022-12-31T06:55:12.456Z,46.20
2022-12-31T06:57:39.528Z,55.00
2022-12-31T07:00:07.295Z,44.00
2022-12-31T07:02:43.536Z,49.00
2022-12-31T07:05:32.060Z,43.75
2022-12-31T07:08:20.729Z,48.40
2022-12-31T07:11:01.689Z,52.00
2022-12-31T07:13:46.685Z,43.00
2022-12-31T07:16:26.010Z,43.75
2022-12-31T07:19:24.392Z,44.00
2022-12-31T07:21:55.176Z,50.00
2022-12-31T07:24:22.608Z,45.00
2022-12-31T07:27:04.729Z,43.80
2022-12-31T07:29:56.472Z,52.80
2022-12-31T07:32:56.341Z,42.40
2022-12-31T07:35:34.808Z,41.80
2022-12-31T07:38:12.611Z,45.20
2022-12-31T07:41:10.364Z,45.80
2022-12-31T07:44:15.450Z,42.80
2022-12-31T07:46:56.850Z,40.00
2022-12-31T07:49:26.144Z,42.60
2022-12-31T07:51:55.201Z,48.20
2022-12-31T07:54:22.369Z,45.80
2022-12-31T07:56:50.648Z,40.80
2022-12-31T07:59:42.584Z,42.60
2022-12-31T08:02:42.903Z,48.20
2022-12-31T08:05:26.130Z,48.40
2022-12-31T08:08:06.551Z,44.00
2022-12-31T08:10:41.768Z,45.00
2022-12-31T08:13:11.647Z,43.20
2022-12-31T08:15:40.179Z,43.80
2022-12-31T08:18:08.416Z,42.50
2022-12-31T08:20:48.379Z,41.50
2022-12-31T08:23:37.283Z,44.25
2022-12-31T08:26:11.936Z,49.40
2022-12-31T08:29:02.335Z,48.00
2022-12-31T08:32:13.213Z,49.00
2022-12-31T08:35:07.644Z,49.80
2022-12-31T08:37:42.168Z,45.50
2022-12-31T08:40:42.789Z,47.40
2022-12-31T08:43:18.866Z,47.40
2022-12-31T08:45:50.168Z,41.50
2022-12-31T08:48:25.923Z,43.80
2022-12-31T08:50:54.087Z,41.50
2022-12-31T08:53:21.901Z,44.20
2022-12-31T08:55:55.696Z,43.75
2022-12-31T08:58:38.801Z,49.60
2022-12-31T09:01:08.735Z,44.20
2022-12-31T09:03:59.813Z,45.20
2022-12-31T09:06:38.256Z,48.00
2022-12-31T09:09:17.329Z,46.00
2022-12-31T09:11:55.107Z,48.25
2022-12-31T09:14:40.203Z,44.20
2022-12-31T09:17:31.842Z,43.80
2022-12-31T09:19:59.127Z,44.60
2022-12-31T09:22:26.426Z,51.50
2022-12-31T09:24:53.601Z,45.00
2022-12-31T09:27:41.338Z,45.25
2022-12-31T09:30:12.974Z,46.00
2022-12-31T09:33:01.194Z,45.80
2022-12-31T09:35:36.008Z,48.60
2022-12-31T09:38:11.693Z,46.00
2022-12-31T09:40:42.052Z,45.50
2022-12-31T09:43:20.853Z,52.80
2022-12-31T09:46:09.034Z,45.75
2022-12-31T09:48:35.929Z,46.80
2022-12-31T09:51:25.581Z,52.40
2022-12-31T09:53:55.813Z,45.00
2022-12-31T09:56:37.372Z,47.75
2022-12-31T09:59:16.927Z,49.25
2022-12-31T10:02:20.738Z,53.60
2022-12-31T10:05:01.167Z,52.20
2022-12-31T10:07:55.863Z,47.75
2022-12-31T10:10:47.415Z,54.50
2022-12-31T10:13:33.345Z,53.20
2022-12-31T10:16:33.918Z,46.00
2022-12-31T10:19:35.933Z,50.25
2022-12-31T10:22:14.834Z,50.50
2022-12-31T10:24:49.043Z,54.50
2022-12-31T10:27:33.620Z,53.25
2022-12-31T10:30:18.059Z,54.80
2022-12-31T10:33:26.535Z,54.50
2022-12-31T10:36:14.584Z,49.00
2022-12-31T10:39:24.278Z,50.75
2022-12-31T10:42:28.969Z,48.50
2022-12-31T10:45:02.114Z,55.25
2022-12-31T10:48:07.425Z,56.00
2022-12-31T10:51:01.334Z,48.00
2022-12-31T10:53:47.734Z,53.25
2022-12-31T10:56:32.697Z,49.25
2022-12-31T10:59:41.134Z,64.00
2022-12-31T11:02:46.199Z,55.00
2022-12-31T11:05:38.793Z,52.25
2022-12-31T11:08:06.065Z,54.25
2022-12-31T11:11:04.335Z,52.00
2022-12-31T11:13:39.542Z,50.75
2022-12-31T11:16:18.823Z,50.00
2022-12-31T11:19:02.219Z,52.67
2022-12-31T11:21:59.845Z,55.25
2022-12-31T11:24:47.684Z,53.00
2022-12-31T11:27:41.777Z,50.00
2022-12-31T11:30:51.868Z,53.00
2022-12-31T11:33:50.719Z,53.25
2022-12-31T11:36:53.094Z,53.00
2022-12-31T11:39:31.493Z,54.75
2022-12-31T11:42:22.069Z,53.25
2022-12-31T11:45:22.607Z,54.50
2022-12-31T11:51:34.182Z,58.50
2022-12-31T11:54:37.373Z,56.00
2022-12-31T11:57:32.545Z,54.25
2022-12-31T12:00:02.529Z,58.00
2022-12-31T12:02:46.447Z,54.50
2022-12-31T12:05:17.181Z,54.00
2022-12-31T12:07:44.571Z,55.75
2022-12-31T12:10:35.671Z,53.50
2022-12-31T12:13:24.471Z,54.00
2022-12-31T12:16:04.021Z,56.00
2022-12-31T12:18:52.600Z,56.75
2022-12-31T12:21:23.380Z,58.00
2022-12-31T12:24:30.412Z,56.75
2022-12-31T12:27:00.577Z,53.75
2022-12-31T12:29:38.320Z,57.50
2022-12-31T12:32:18.691Z,50.00
2022-12-31T12:35:13.507Z,51.00
2022-12-31T12:37:42.489Z,50.50
2022-12-31T12:40:33.739Z,55.50
2022-12-31T12:43:13.981Z,52.00
2022-12-31T12:45:52.399Z,56.50
2022-12-31T12:49:22.216Z,53.75
2022-12-31T12:51:26.208Z,49.50
2022-12-31T12:54:22.213Z,70.20
2022-12-31T13:05:02.982Z,50.25
2022-12-31T13:08:08.554Z,52.00
2022-12-31T13:11:18.735Z,54.25
2022-12-31T13:13:55.287Z,59.00
2022-12-31T13:16:38.954Z,54.25
2022-12-31T13:19:17.856Z,54.00
2022-12-31T13:21:53.832Z,52.50
2022-12-31T13:24:48.254Z,54.75
2022-12-31T13:27:44.689Z,52.50
2022-12-31T13:30:19.742Z,49.00
2022-12-31T13:33:16.649Z,49.50
2022-12-31T13:35:51.644Z,52.00
2022-12-31T13:38:27.321Z,67.60
2022-12-31T13:41:05.093Z,52.00
2022-12-31T13:43:39.908Z,53.25
2022-12-31T13:46:41.947Z,54.80
2022-12-31T13:49:25.291Z,52.40
2022-12-31T13:52:01.017Z,52.50
2022-12-31T13:54:39.138Z,48.50
2022-12-31T13:57:37.854Z,49.25
2022-12-31T14:00:22.532Z,54.50
2022-12-31T14:03:20.502Z,50.50
2022-12-31T14:05:56.815Z,50.00
2022-12-31T14:08:26.232Z,49.50
2022-12-31T14:10:53.457Z,54.00
2022-12-31T14:13:23.295Z,48.25
2022-12-31T14:16:08.940Z,52.00
2022-12-31T14:18:58.894Z,53.40
2022-12-31T14:22:19.500Z,49.50
2022-12-31T14:24:52.067Z,52.60
2022-12-31T14:27:35.389Z,53.00
2022-12-31T14:30:28.016Z,54.20
2022-12-31T14:33:11.504Z,61.00
2022-12-31T14:36:10.729Z,49.00
2022-12-31T14:38:55.176Z,51.20
2022-12-31T14:41:33.545Z,49.00
2022-12-31T14:44:38.200Z,48.25
2022-12-31T14:47:22.056Z,51.75
2022-12-31T14:50:11.503Z,53.00
2022-12-31T14:52:52.808Z,63.40
2022-12-31T14:55:31.624Z,49.00
2022-12-31T15:00:58.012Z,59.80
2022-12-31T15:03:30.024Z,52.40
2022-12-31T15:06:23.117Z,54.80
2022-12-31T15:08:55.995Z,51.00
2022-12-31T15:11:40.468Z,49.00
2022-12-31T15:14:39.131Z,51.25
2022-12-31T15:17:39.309Z,50.50
2022-12-31T15:20:44.892Z,48.75
2022-12-31T15:23:28.579Z,53.75
2022-12-31T15:26:08.898Z,51.00
2022-12-31T15:28:38.548Z,52.75
2022-12-31T15:31:10.769Z,48.80
2022-12-31T15:33:56.125Z,50.40
2022-12-31T15:36:31.948Z,49.40
2022-12-31T15:39:15.699Z,46.50
2022-12-31T15:44:42.809Z,49.00
2022-12-31T15:47:32.417Z,49.80
2022-12-31T15:50:09.226Z,46.00
2022-12-31T15:52:43.299Z,46.80
2022-12-31T15:55:22.498Z,47.25
2022-12-31T15:57:51.103Z,46.00
2022-12-31T16:00:23.536Z,49.40
2022-12-31T16:02:55.023Z,48.50
2022-12-31T16:05:27.504Z,61.00
2022-12-31T16:07:59.266Z,47.00
2022-12-31T16:10:32.018Z,46.00
2022-12-31T16:13:00.161Z,46.00
2022-12-31T16:15:33.351Z,50.40
2022-12-31T16:18:22.533Z,45.60
2022-12-31T16:20:52.115Z,62.20
2022-12-31T16:23:24.178Z,45.75
2022-12-31T16:26:02.235Z,45.50
2022-12-31T16:28:33.403Z,55.80
2022-12-31T16:31:06.827Z,45.00
2022-12-31T16:33:34.562Z,50.20
2022-12-31T16:36:02.263Z,47.60
2022-12-31T16:38:36.968Z,46.20
2022-12-31T16:41:04.088Z,46.40
2022-12-31T16:43:40.141Z,64.20
2022-12-31T16:46:26.495Z,48.60
2022-12-31T16:48:56.410Z,48.00
2022-12-31T16:51:29.214Z,54.80
2022-12-31T16:54:02.063Z,51.20
2022-12-31T16:56:39.407Z,51.80
2022-12-31T16:59:19.052Z,49.20
2022-12-31T17:01:47.114Z,45.20
2022-12-31T17:04:18.675Z,51.00
2022-12-31T17:06:45.804Z,60.00
2022-12-31T17:09:20.907Z,45.40
2022-12-31T17:12:18.563Z,46.40
2022-12-31T17:14:51.015Z,46.00
2022-12-31T17:17:30.352Z,46.00
2022-12-31T17:20:00.896Z,45.00
2022-12-31T17:22:40.090Z,50.60
2022-12-31T17:25:28.584Z,45.50
2022-12-31T17:28:05.722Z,60.60
2022-12-31T17:30:32.970Z,46.20
2022-12-31T17:33:12.011Z,48.00
2022-12-31T17:35:42.428Z,47.40
2022-12-31T17:38:18.203Z,50.60
2022-12-31T17:40:51.708Z,45.00
2022-12-31T17:43:23.760Z,49.40
2022-12-31T17:45:52.975Z,45.40
2022-12-31T17:48:23.133Z,52.60
2022-12-31T17:50:57.565Z,57.20
2022-12-31T17:53:24.975Z,49.80
2022-12-31T17:55:55.123Z,51.40
2022-12-31T17:58:30.033Z,51.20
2022-12-31T18:00:58.470Z,46.00
2022-12-31T18:03:25.781Z,45.80
2022-12-31T18:05:52.658Z,48.80
2022-12-31T18:08:19.586Z,49.00
2022-12-31T18:10:46.734Z,50.00
2022-12-31T18:13:20.645Z,65.00
2022-12-31T18:15:47.613Z,44.80
2022-12-31T18:18:25.835Z,45.50
2022-12-31T18:20:58.825Z,49.40
2022-12-31T18:23:27.881Z,48.60
2022-12-31T18:25:55.095Z,48.00
2022-12-31T18:28:21.980Z,45.40
2022-12-31T18:30:50.049Z,45.80
2022-12-31T18:33:22.331Z,48.00
2022-12-31T18:36:08.198Z,45.20
2022-12-31T18:38:35.861Z,47.40
2022-12-31T18:41:02.768Z,45.40
2022-12-31T18:43:29.643Z,47.00
2022-12-31T18:45:56.570Z,48.25
2022-12-31T18:48:23.852Z,52.00
2022-12-31T18:50:50.931Z,51.20
2022-12-31T18:53:23.429Z,49.00
2022-12-31T18:55:56.248Z,72.20
2022-12-31T18:58:23.568Z,48.00
2022-12-31T19:00:51.883Z,49.80
2022-12-31T19:03:22.310Z,58.80
2022-12-31T19:05:51.187Z,47.50
2022-12-31T19:08:19.453Z,48.80
2022-12-31T19:10:48.000Z,50.00
2022-12-31T19:13:17.090Z,46.00
2022-12-31T19:15:46.975Z,48.60
2022-12-31T19:18:13.773Z,48.80
2022-12-31T19:20:41.308Z,73.40
2022-12-31T19:23:18.111Z,46.80
2022-12-31T19:25:46.892Z,45.60
2022-12-31T19:28:25.849Z,48.60
2022-12-31T19:30:53.461Z,45.00
2022-12-31T19:33:20.563Z,48.20
2022-12-31T19:35:48.172Z,48.80
2022-12-31T19:38:26.244Z,50.60
2022-12-31T19:40:53.857Z,45.40
2022-12-31T19:43:22.665Z,49.00
2022-12-31T19:45:50.833Z,45.20
2022-12-31T19:48:32.704Z,47.40
2022-12-31T19:51:00.108Z,49.40
2022-12-31T19:53:28.277Z,46.40
2022-12-31T19:55:55.137Z,45.20
2022-12-31T19:58:25.743Z,45.60
2022-12-31T20:00:58.419Z,44.60
2022-12-31T20:03:29.320Z,68.00
2022-12-31T20:06:09.459Z,46.00
2022-12-31T20:08:38.528Z,48.80
2022-12-31T20:11:15.791Z,46.20
2022-12-31T20:13:42.571Z,64.60
2022-12-31T20:16:11.825Z,43.80
2022-12-31T20:18:39.789Z,48.40
2022-12-31T20:21:18.895Z,46.40
2022-12-31T20:23:46.291Z,52.80
2022-12-31T20:26:13.341Z,48.20
2022-12-31T20:28:40.541Z,49.40
2022-12-31T20:31:16.332Z,47.80
2022-12-31T20:33:43.942Z,48.40
2022-12-31T20:36:13.895Z,51.00
2022-12-31T20:38:40.879Z,45.20
2022-12-31T20:41:10.933Z,47.00
2022-12-31T20:43:38.358Z,45.60
2022-12-31T20:46:20.138Z,50.00
2022-12-31T20:48:48.754Z,45.80
2022-12-31T20:51:17.164Z,49.00
2022-12-31T20:53:52.633Z,61.60
2022-12-31T20:56:19.527Z,51.80
2022-12-31T20:58:46.468Z,53.80
2022-12-31T21:01:14.888Z,46.80
2022-12-31T21:06:31.361Z,54.20
2022-12-31T21:09:00.445Z,47.60
2022-12-31T21:11:46.773Z,48.40
2022-12-31T21:14:13.556Z,44.00
2022-12-31T21:16:40.759Z,52.60
2022-12-31T21:19:07.683Z,50.60
2022-12-31T21:21:35.111Z,50.40
2022-12-31T21:24:02.039Z,63.60
2022-12-31T21:26:30.811Z,51.40
2022-12-31T21:28:57.963Z,48.40
2022-12-31T21:31:24.788Z,93.60
2022-12-31T21:33:51.675Z,55.00
2022-12-31T21:36:18.732Z,50.80
2022-12-31T21:38:45.525Z,46.20
2022-12-31T21:41:34.799Z,53.60
2022-12-31T21:44:02.270Z,54.20
2022-12-31T21:46:29.427Z,59.40
2022-12-31T21:49:00.582Z,49.20
2022-12-31T21:51:28.001Z,45.00
2022-12-31T21:53:54.893Z,46.00
2022-12-31T21:56:22.757Z,53.00
2022-12-31T21:59:17.258Z,55.40
2022-12-31T22:02:02.817Z,42.00
2022-12-31T22:07:16.667Z,52.60
2022-12-31T22:09:43.478Z,56.20
2022-12-31T22:12:10.291Z,53.40
2022-12-31T22:14:37.047Z,50.40
2022-12-31T22:17:04.040Z,57.00
2022-12-31T22:19:31.075Z,51.20
2022-12-31T22:21:57.878Z,63.80
2022-12-31T22:24:25.121Z,49.80
2022-12-31T22:26:54.356Z,51.40
2022-12-31T22:29:21.750Z,47.80
2022-12-31T22:31:48.651Z,48.00
2022-12-31T22:34:15.649Z,52.40
2022-12-31T22:36:42.397Z,51.20
2022-12-31T22:39:14.257Z,54.00
2022-12-31T22:42:01.073Z,46.80
2022-12-31T22:44:27.836Z,42.80
2022-12-31T22:46:56.362Z,44.60
2022-12-31T22:49:23.249Z,45.80
2022-12-31T22:51:55.825Z,46.60
2022-12-31T22:54:25.892Z,64.60
2022-12-31T22:56:52.744Z,54.00
2022-12-31T22:59:19.689Z,52.40
2022-12-31T23:01:46.654Z,43.60
2022-12-31T23:04:13.555Z,43.00
2022-12-31T23:06:46.498Z,48.20
2022-12-31T23:09:34.171Z,64.20
2022-12-31T23:12:01.916Z,98.40
2022-12-31T23:14:47.081Z,47.60
2022-12-31T23:17:37.764Z,78.60
2022-12-31T23:20:25.234Z,90.20
2022-12-31T23:23:10.590Z,79.20
2022-12-31T23:25:51.449Z,78.80
2022-12-31T23:28:24.181Z,105.80
2022-12-31T23:30:51.676Z,91.60
2022-12-31T23:33:23.608Z,108.40
2022-12-31T23:35:51.345Z,85.60
2022-12-31T23:38:18.907Z,108.40
2022-12-31T23:40:46.067Z,82.40
2022-12-31T23:43:20.597Z,97.20
2022-12-31T23:45:51.274Z,106.40
2022-12-31T23:48:18.184Z,104.20
2022-12-31T23:50:50.853Z,92.60
2022-12-31T23:53:19.936Z,85.40
2022-12-31T23:55:46.923Z,82.60
2022-12-31T23:58:13.712Z,86.40
